sensor_id;sensor_type;location;lat;lon;timestamp;temperature;humidity
52073;DHT22;38074;51.232;6.826;2023-06-10T00:04:00;26.00;49.30
52073;DHT22;38074;51.232;6.826;2023-06-10T00:11:16;26.00;49.30
52073;DHT22;38074;51.232;6.826;2023-06-10T00:18:31;26.00;49.20
52073;DHT22;38074;51.232;6.826;2023-06-10T00:25:48;26.00;49.20
52073;DHT22;38074;51.232;6.826;2023-06-10T00:33:03;26.00;49.20
52073;DHT22;38074;51.232;6.826;2023-06-10T00:40:19;26.00;49.10
52073;DHT22;38074;51.232;6.826;2023-06-10T00:47:35;26.00;49.10
52073;DHT22;38074;51.232;6.826;2023-06-10T00:54:51;26.00;49.10
52073;DHT22;38074;51.232;6.826;2023-06-10T01:02:08;26.00;49.00
52073;DHT22;38074;51.232;6.826;2023-06-10T01:09:37;26.00;49.00
52073;DHT22;38074;51.232;6.826;2023-06-10T01:16:56;26.00;49.00
52073;DHT22;38074;51.232;6.826;2023-06-10T01:24:12;26.00;48.90
52073;DHT22;38074;51.232;6.826;2023-06-10T01:31:52;26.00;49.00
52073;DHT22;38074;51.232;6.826;2023-06-10T01:39:11;26.00;48.80
52073;DHT22;38074;51.232;6.826;2023-06-10T01:46:28;26.00;48.90
52073;DHT22;38074;51.232;6.826;2023-06-10T01:53:43;26.00;48.80
52073;DHT22;38074;51.232;6.826;2023-06-10T02:00:59;26.00;48.80
52073;DHT22;38074;51.232;6.826;2023-06-10T02:08:20;26.00;48.80
52073;DHT22;38074;51.232;6.826;2023-06-10T02:15:35;26.00;48.80
52073;DHT22;38074;51.232;6.826;2023-06-10T02:22:51;26.00;48.80
52073;DHT22;38074;51.232;6.826;2023-06-10T02:30:08;26.00;48.80
52073;DHT22;38074;51.232;6.826;2023-06-10T02:37:25;26.00;48.80
52073;DHT22;38074;51.232;6.826;2023-06-10T02:44:41;26.00;48.70
52073;DHT22;38074;51.232;6.826;2023-06-10T02:51:56;26.00;48.80
52073;DHT22;38074;51.232;6.826;2023-06-10T02:59:12;26.00;48.70
52073;DHT22;38074;51.232;6.826;2023-06-10T03:06:27;26.00;48.70
52073;DHT22;38074;51.232;6.826;2023-06-10T03:13:43;26.00;48.70
52073;DHT22;38074;51.232;6.826;2023-06-10T03:20:59;26.00;48.70
52073;DHT22;38074;51.232;6.826;2023-06-10T03:28:15;26.00;48.70
52073;DHT22;38074;51.232;6.826;2023-06-10T03:35:30;26.00;48.70
52073;DHT22;38074;51.232;6.826;2023-06-10T03:42:47;26.00;48.80
52073;DHT22;38074;51.232;6.826;2023-06-10T03:50:03;26.00;48.80
52073;DHT22;38074;51.232;6.826;2023-06-10T03:57:19;26.00;48.70
52073;DHT22;38074;51.232;6.826;2023-06-10T04:04:35;26.00;48.70
52073;DHT22;38074;51.232;6.826;2023-06-10T04:11:51;26.00;48.70
52073;DHT22;38074;51.232;6.826;2023-06-10T04:19:07;26.00;48.70
52073;DHT22;38074;51.232;6.826;2023-06-10T04:26:22;26.00;49.40
52073;DHT22;38074;51.232;6.826;2023-06-10T04:33:38;26.00;48.60
52073;DHT22;38074;51.232;6.826;2023-06-10T04:40:53;26.00;48.60
52073;DHT22;38074;51.232;6.826;2023-06-10T04:48:09;26.00;48.60
52073;DHT22;38074;51.232;6.826;2023-06-10T04:55:25;26.00;48.60
52073;DHT22;38074;51.232;6.826;2023-06-10T05:02:41;26.00;48.60
52073;DHT22;38074;51.232;6.826;2023-06-10T05:09:56;26.00;48.60
52073;DHT22;38074;51.232;6.826;2023-06-10T05:17:11;26.00;48.60
52073;DHT22;38074;51.232;6.826;2023-06-10T05:24:28;26.00;48.80
52073;DHT22;38074;51.232;6.826;2023-06-10T05:31:44;26.00;48.50
52073;DHT22;38074;51.232;6.826;2023-06-10T05:38:59;26.00;48.50
52073;DHT22;38074;51.232;6.826;2023-06-10T05:46:15;26.00;48.50
52073;DHT22;38074;51.232;6.826;2023-06-10T05:53:31;26.00;48.50
52073;DHT22;38074;51.232;6.826;2023-06-10T06:00:47;26.00;48.50
52073;DHT22;38074;51.232;6.826;2023-06-10T06:08:07;26.00;48.50
52073;DHT22;38074;51.232;6.826;2023-06-10T06:15:23;26.00;48.50
52073;DHT22;38074;51.232;6.826;2023-06-10T06:22:38;26.00;48.50
52073;DHT22;38074;51.232;6.826;2023-06-10T06:29:54;26.10;48.50
52073;DHT22;38074;51.232;6.826;2023-06-10T06:37:09;26.10;48.50
52073;DHT22;38074;51.232;6.826;2023-06-10T06:44:25;26.10;48.60
52073;DHT22;38074;51.232;6.826;2023-06-10T06:51:40;26.10;48.50
52073;DHT22;38074;51.232;6.826;2023-06-10T06:58:56;26.10;48.60
52073;DHT22;38074;51.232;6.826;2023-06-10T07:06:12;26.10;48.50
52073;DHT22;38074;51.232;6.826;2023-06-10T07:13:28;26.10;48.50
52073;DHT22;38074;51.232;6.826;2023-06-10T07:20:43;26.10;48.60
52073;DHT22;38074;51.232;6.826;2023-06-10T07:27:59;26.20;48.60
52073;DHT22;38074;51.232;6.826;2023-06-10T07:35:14;26.20;48.60
52073;DHT22;38074;51.232;6.826;2023-06-10T07:42:32;26.20;48.60
52073;DHT22;38074;51.232;6.826;2023-06-10T07:49:48;26.20;48.60
52073;DHT22;38074;51.232;6.826;2023-06-10T07:57:04;26.20;48.60
52073;DHT22;38074;51.232;6.826;2023-06-10T08:04:19;26.20;48.60
52073;DHT22;38074;51.232;6.826;2023-06-10T08:11:35;26.20;48.60
52073;DHT22;38074;51.232;6.826;2023-06-10T08:18:50;26.20;48.60
52073;DHT22;38074;51.232;6.826;2023-06-10T08:26:06;26.20;48.60
52073;DHT22;38074;51.232;6.826;2023-06-10T08:33:21;26.20;48.60
52073;DHT22;38074;51.232;6.826;2023-06-10T08:40:37;26.20;48.60
52073;DHT22;38074;51.232;6.826;2023-06-10T08:47:53;26.20;48.60
52073;DHT22;38074;51.232;6.826;2023-06-10T08:55:15;26.20;48.60
52073;DHT22;38074;51.232;6.826;2023-06-10T09:02:36;26.20;48.60
52073;DHT22;38074;51.232;6.826;2023-06-10T09:09:53;26.20;48.60
52073;DHT22;38074;51.232;6.826;2023-06-10T09:17:10;26.20;48.60
52073;DHT22;38074;51.232;6.826;2023-06-10T09:24:26;26.20;48.60
52073;DHT22;38074;51.232;6.826;2023-06-10T09:31:41;26.20;48.60
52073;DHT22;38074;51.232;6.826;2023-06-10T09:38:58;26.20;48.60
52073;DHT22;38074;51.232;6.826;2023-06-10T09:46:15;26.30;48.70
52073;DHT22;38074;51.232;6.826;2023-06-10T09:53:33;26.30;48.70
52073;DHT22;38074;51.232;6.826;2023-06-10T10:00:52;26.20;48.60
52073;DHT22;38074;51.232;6.826;2023-06-10T10:08:09;26.20;48.70
52073;DHT22;38074;51.232;6.826;2023-06-10T10:15:29;26.20;48.70
52073;DHT22;38074;51.232;6.826;2023-06-10T10:22:47;26.20;48.70
52073;DHT22;38074;51.232;6.826;2023-06-10T10:30:05;26.30;48.70
52073;DHT22;38074;51.232;6.826;2023-06-10T10:37:26;26.30;48.70
52073;DHT22;38074;51.232;6.826;2023-06-10T10:44:42;26.30;48.70
52073;DHT22;38074;51.232;6.826;2023-06-10T10:52:00;26.20;48.60
52073;DHT22;38074;51.232;6.826;2023-06-10T10:59:15;26.30;48.70
52073;DHT22;38074;51.232;6.826;2023-06-10T11:06:35;26.30;48.60
52073;DHT22;38074;51.232;6.826;2023-06-10T11:21:19;26.30;48.60
52073;DHT22;38074;51.232;6.826;2023-06-10T11:28:35;26.20;48.50
52073;DHT22;38074;51.232;6.826;2023-06-10T11:35:50;26.30;48.50
52073;DHT22;38074;51.232;6.826;2023-06-10T11:43:06;26.20;48.40
52073;DHT22;38074;51.232;6.826;2023-06-10T11:50:32;26.20;48.30
52073;DHT22;38074;51.232;6.826;2023-06-10T11:57:48;26.20;48.30
52073;DHT22;38074;51.232;6.826;2023-06-10T12:05:12;26.20;48.30
52073;DHT22;38074;51.232;6.826;2023-06-10T12:12:28;26.20;48.20
52073;DHT22;38074;51.232;6.826;2023-06-10T12:19:44;26.20;48.20
52073;DHT22;38074;51.232;6.826;2023-06-10T12:26:59;26.20;48.20
52073;DHT22;38074;51.232;6.826;2023-06-10T12:34:15;26.30;48.10
52073;DHT22;38074;51.232;6.826;2023-06-10T12:41:30;26.20;48.10
52073;DHT22;38074;51.232;6.826;2023-06-10T12:48:50;26.30;48.10
52073;DHT22;38074;51.232;6.826;2023-06-10T12:56:10;26.30;48.10
52073;DHT22;38074;51.232;6.826;2023-06-10T13:03:25;26.20;48.00
52073;DHT22;38074;51.232;6.826;2023-06-10T13:10:41;26.20;48.60
52073;DHT22;38074;51.232;6.826;2023-06-10T13:17:57;26.30;48.00
52073;DHT22;38074;51.232;6.826;2023-06-10T13:25:13;26.30;47.90
52073;DHT22;38074;51.232;6.826;2023-06-10T13:32:29;26.30;47.90
52073;DHT22;38074;51.232;6.826;2023-06-10T13:39:45;26.30;47.80
52073;DHT22;38074;51.232;6.826;2023-06-10T13:47:06;26.30;47.80
52073;DHT22;38074;51.232;6.826;2023-06-10T13:54:22;26.30;47.80
52073;DHT22;38074;51.232;6.826;2023-06-10T14:01:38;26.20;47.70
52073;DHT22;38074;51.232;6.826;2023-06-10T14:08:54;26.30;47.70
52073;DHT22;38074;51.232;6.826;2023-06-10T14:16:12;26.30;47.70
52073;DHT22;38074;51.232;6.826;2023-06-10T14:23:28;26.30;47.70
52073;DHT22;38074;51.232;6.826;2023-06-10T14:30:43;26.30;47.70
52073;DHT22;38074;51.232;6.826;2023-06-10T14:37:59;26.30;47.60
52073;DHT22;38074;51.232;6.826;2023-06-10T14:45:15;26.30;47.60
52073;DHT22;38074;51.232;6.826;2023-06-10T14:52:30;26.30;47.60
52073;DHT22;38074;51.232;6.826;2023-06-10T14:59:46;26.30;47.60
52073;DHT22;38074;51.232;6.826;2023-06-10T15:07:01;26.30;47.60
52073;DHT22;38074;51.232;6.826;2023-06-10T15:14:17;26.30;47.60
52073;DHT22;38074;51.232;6.826;2023-06-10T15:21:32;26.30;47.60
52073;DHT22;38074;51.232;6.826;2023-06-10T15:28:48;26.30;47.60
52073;DHT22;38074;51.232;6.826;2023-06-10T15:36:03;26.30;47.60
52073;DHT22;38074;51.232;6.826;2023-06-10T15:43:20;26.30;47.60
52073;DHT22;38074;51.232;6.826;2023-06-10T15:50:35;26.30;47.50
52073;DHT22;38074;51.232;6.826;2023-06-10T15:57:51;26.30;47.60
52073;DHT22;38074;51.232;6.826;2023-06-10T16:05:06;26.30;47.50
52073;DHT22;38074;51.232;6.826;2023-06-10T16:12:22;26.30;47.60
52073;DHT22;38074;51.232;6.826;2023-06-10T16:19:37;26.30;47.50
52073;DHT22;38074;51.232;6.826;2023-06-10T16:26:53;26.30;47.40
52073;DHT22;38074;51.232;6.826;2023-06-10T16:34:08;26.30;47.50
52073;DHT22;38074;51.232;6.826;2023-06-10T16:41:24;26.30;47.40
52073;DHT22;38074;51.232;6.826;2023-06-10T16:48:40;26.30;47.40
52073;DHT22;38074;51.232;6.826;2023-06-10T16:55:57;26.30;47.40
52073;DHT22;38074;51.232;6.826;2023-06-10T17:03:13;26.30;47.30
52073;DHT22;38074;51.232;6.826;2023-06-10T17:10:29;26.30;47.30
52073;DHT22;38074;51.232;6.826;2023-06-10T17:17:44;26.30;47.30
52073;DHT22;38074;51.232;6.826;2023-06-10T17:25:00;26.30;47.30
52073;DHT22;38074;51.232;6.826;2023-06-10T17:32:15;26.40;47.30
52073;DHT22;38074;51.232;6.826;2023-06-10T17:39:32;26.30;47.20
52073;DHT22;38074;51.232;6.826;2023-06-10T17:46:47;26.30;47.20
52073;DHT22;38074;51.232;6.826;2023-06-10T17:54:03;26.30;47.20
52073;DHT22;38074;51.232;6.826;2023-06-10T18:01:18;26.30;47.20
52073;DHT22;38074;51.232;6.826;2023-06-10T18:08:34;26.30;47.30
52073;DHT22;38074;51.232;6.826;2023-06-10T18:15:50;26.30;47.20
52073;DHT22;38074;51.232;6.826;2023-06-10T18:23:06;26.30;47.20
52073;DHT22;38074;51.232;6.826;2023-06-10T18:30:21;26.30;47.20
52073;DHT22;38074;51.232;6.826;2023-06-10T18:37:37;26.40;47.30
52073;DHT22;38074;51.232;6.826;2023-06-10T18:44:52;26.30;47.30
52073;DHT22;38074;51.232;6.826;2023-06-10T18:52:08;26.30;47.30
52073;DHT22;38074;51.232;6.826;2023-06-10T18:59:24;26.30;47.30
52073;DHT22;38074;51.232;6.826;2023-06-10T19:06:39;26.30;47.30
52073;DHT22;38074;51.232;6.826;2023-06-10T19:13:55;26.30;47.30
52073;DHT22;38074;51.232;6.826;2023-06-10T19:21:10;26.40;47.30
52073;DHT22;38074;51.232;6.826;2023-06-10T19:28:26;26.30;47.30
52073;DHT22;38074;51.232;6.826;2023-06-10T19:35:41;26.30;47.30
52073;DHT22;38074;51.232;6.826;2023-06-10T19:42:57;26.30;47.40
52073;DHT22;38074;51.232;6.826;2023-06-10T19:50:12;26.40;47.40
52073;DHT22;38074;51.232;6.826;2023-06-10T19:57:28;26.30;47.40
52073;DHT22;38074;51.232;6.826;2023-06-10T20:04:43;26.30;47.50
52073;DHT22;38074;51.232;6.826;2023-06-10T20:11:59;26.30;47.40
52073;DHT22;38074;51.232;6.826;2023-06-10T20:19:15;26.40;47.60
52073;DHT22;38074;51.232;6.826;2023-06-10T20:26:30;26.40;47.60
52073;DHT22;38074;51.232;6.826;2023-06-10T20:33:46;26.30;47.60
52073;DHT22;38074;51.232;6.826;2023-06-10T20:41:01;26.30;47.70
52073;DHT22;38074;51.232;6.826;2023-06-10T20:48:17;26.30;47.60
52073;DHT22;38074;51.232;6.826;2023-06-10T20:55:32;26.30;47.60
52073;DHT22;38074;51.232;6.826;2023-06-10T21:02:48;26.40;47.70
52073;DHT22;38074;51.232;6.826;2023-06-10T21:10:05;26.30;47.70
52073;DHT22;38074;51.232;6.826;2023-06-10T21:17:20;26.30;47.80
52073;DHT22;38074;51.232;6.826;2023-06-10T21:24:36;26.40;47.80
52073;DHT22;38074;51.232;6.826;2023-06-10T21:31:51;26.40;47.80
52073;DHT22;38074;51.232;6.826;2023-06-10T21:39:07;26.40;47.90
52073;DHT22;38074;51.232;6.826;2023-06-10T21:46:23;26.30;47.80
52073;DHT22;38074;51.232;6.826;2023-06-10T21:53:38;26.30;47.80
52073;DHT22;38074;51.232;6.826;2023-06-10T22:00:54;26.30;47.80
52073;DHT22;38074;51.232;6.826;2023-06-10T22:08:10;26.40;47.90
52073;DHT22;38074;51.232;6.826;2023-06-10T22:15:27;26.40;47.90
52073;DHT22;38074;51.232;6.826;2023-06-10T22:22:42;26.40;47.90
52073;DHT22;38074;51.232;6.826;2023-06-10T22:29:58;26.30;47.80
52073;DHT22;38074;51.232;6.826;2023-06-10T22:37:13;26.30;47.90
52073;DHT22;38074;51.232;6.826;2023-06-10T22:44:29;26.40;47.90
52073;DHT22;38074;51.232;6.826;2023-06-10T22:51:44;26.30;47.80
52073;DHT22;38074;51.232;6.826;2023-06-10T22:59:01;26.30;47.80
52073;DHT22;38074;51.232;6.826;2023-06-10T23:06:17;26.30;47.90
52073;DHT22;38074;51.232;6.826;2023-06-10T23:13:33;26.30;47.80
52073;DHT22;38074;51.232;6.826;2023-06-10T23:20:48;26.30;47.80
52073;DHT22;38074;51.232;6.826;2023-06-10T23:28:06;26.30;47.80
52073;DHT22;38074;51.232;6.826;2023-06-10T23:35:22;26.30;47.80
52073;DHT22;38074;51.232;6.826;2023-06-10T23:42:37;26.30;47.80
52073;DHT22;38074;51.232;6.826;2023-06-10T23:49:52;26.30;47.80
52073;DHT22;38074;51.232;6.826;2023-06-10T23:57:08;26.30;47.80
